Terminal Aerodrome Forecast
Issued by NWS Medford, OR

Home | Current Version | Previous Version | Text Only | Print | Product List | Glossary On
Versions: 1 2 3 4 5 6 7 8 9 10 11 12 13 14 15 16 17 18 19 20 21 22 23 24
000
FTUS46 KMFR 281438 AAC
TAFMFR
TAF AMD
KMFR 281438Z 2815/0112 33003KT P6SM VCSH SCT005 OVC020
     FM281800 35006KT P6SM FEW020 SCT100
     FM282200 34014KT P6SM FEW100
     FM010400 02005KT P6SM SKC=

USA.gov is the U.S. government's official web portal to all federal, state and local government web resources and services.